Time;durP1;ratioP1;P1;durP2;ratioP2;P2;SDS_P1;SDS_P2;PMS_P1;PMS_P2;Temp;Humidity;BMP_temperature;BMP_pressure;BME280_temperature;BME280_humidity;BME280_pressure;Samples;Min_cycle;Max_cycle;Signal;HPM_P1;HPM_P2
2022/11/09 00:01:03;;;;;;;5.50;2.00;;;;;;;12.21;100.00;100332.59;5112448;28;20126;-55
2022/11/09 00:03:31;;;;;;;7.63;2.17;;;;;;;12.23;100.00;100339.44;5111484;28;20047;-56
2022/11/09 00:06:00;;;;;;;8.75;2.30;;;;;;;12.27;100.00;100330.31;5112167;28;20051;-55
2022/11/09 00:08:28;;;;;;;7.80;2.55;;;;;;;12.26;100.00;100331.28;5111861;28;20100;-56
2022/11/09 00:11:02;;;;;;;7.03;2.10;;;;;;;12.30;100.00;100335.34;5111940;28;20367;-56
2022/11/09 00:13:35;;;;;;;6.05;2.15;;;;;;;12.27;100.00;100338.22;5112102;28;20051;-56
2022/11/09 00:16:04;;;;;;;8.13;2.15;;;;;;;12.27;100.00;100343.50;5112367;28;20051;-56
2022/11/09 00:18:32;;;;;;;6.60;2.33;;;;;;;12.25;100.00;100344.59;5111610;28;20042;-56
2022/11/09 00:21:05;;;;;;;6.40;2.22;;;;;;;12.26;100.00;100341.81;5112464;28;20491;-55
2022/11/09 00:23:33;;;;;;;6.35;2.13;;;;;;;12.27;100.00;100346.13;5113992;28;20582;-56
2022/11/09 00:26:02;;;;;;;8.65;2.20;;;;;;;12.28;100.00;100353.06;5112007;28;20046;-57
2022/11/09 00:28:31;;;;;;;8.65;1.95;;;;;;;12.31;100.00;100352.84;5111948;28;20057;-58
2022/11/09 00:31:00;;;;;;;9.07;2.83;;;;;;;12.29;100.00;100354.75;5111056;28;20143;-57
2022/11/09 00:33:28;;;;;;;10.50;2.45;;;;;;;12.27;100.00;100356.69;5109694;28;20066;-58
2022/11/09 00:35:56;;;;;;;7.97;2.03;;;;;;;12.27;100.00;100358.47;5110411;28;20089;-57
2022/11/09 00:38:25;;;;;;;7.63;2.28;;;;;;;12.28;100.00;100357.50;5110359;28;20043;-57
2022/11/09 00:40:53;;;;;;;7.80;2.00;;;;;;;12.33;100.00;100355.34;5110451;28;20079;-57
2022/11/09 00:43:21;;;;;;;6.93;1.85;;;;;;;12.33;100.00;100353.53;5110533;28;20517;-58
2022/11/09 00:45:50;;;;;;;6.97;1.90;;;;;;;12.27;100.00;100351.41;5110425;28;20055;-57
2022/11/09 00:48:18;;;;;;;6.60;2.15;;;;;;;12.26;100.00;100357.63;5108185;28;20047;-57
2022/11/09 00:50:49;;;;;;;5.65;1.92;;;;;;;12.29;100.00;100365.28;5112365;28;20108;-57
2022/11/09 00:53:17;;;;;;;8.10;2.13;;;;;;;12.29;100.00;100361.84;5110154;28;20039;-57
2022/11/09 00:55:54;;;;;;;8.57;2.20;;;;;;;12.29;100.00;100354.75;5110320;28;20081;-57
2022/11/09 00:58:22;;;;;;;7.15;2.25;;;;;;;12.32;100.00;100357.16;5110446;28;20050;-52
2022/11/09 01:00:53;;;;;;;11.13;2.65;;;;;;;12.30;100.00;100353.78;5109860;28;20051;-53
2022/11/09 01:03:22;;;;;;;6.68;2.08;;;;;;;12.29;100.00;100362.66;5113777;28;20079;-54
2022/11/09 01:05:53;;;;;;;6.85;2.00;;;;;;;12.30;100.00;100368.78;5113852;28;20039;-54
2022/11/09 01:08:21;;;;;;;8.73;2.20;;;;;;;12.32;100.00;100365.06;5113585;28;20100;-54
2022/11/09 01:10:49;;;;;;;6.10;2.08;;;;;;;12.38;100.00;100361.09;5113551;28;20130;-53
2022/11/09 01:13:19;;;;;;;7.80;2.15;;;;;;;12.39;100.00;100365.38;5113617;28;20044;-54
2022/11/09 01:15:53;;;;;;;5.55;1.85;;;;;;;12.42;100.00;100364.31;5113655;28;20051;-53
2022/11/09 01:18:22;;;;;;;9.27;2.20;;;;;;;12.47;100.00;100356.88;5113514;28;20097;-53
2022/11/09 01:20:56;;;;;;;5.20;1.80;;;;;;;12.49;100.00;100360.22;5113178;28;20135;-55
2022/11/09 01:23:31;;;;;;;8.93;2.10;;;;;;;12.50;100.00;100362.75;5111675;28;20059;-54
2022/11/09 01:26:00;;;;;;;9.57;2.55;;;;;;;12.51;100.00;100369.66;5112384;28;20100;-51
2022/11/09 01:28:32;;;;;;;7.63;2.28;;;;;;;12.55;100.00;100382.63;5109666;28;20127;-52
2022/11/09 01:31:05;;;;;;;6.80;1.95;;;;;;;12.56;100.00;100385.16;5111730;28;20036;-51
2022/11/09 01:33:34;;;;;;;5.33;2.00;;;;;;;12.55;100.00;100367.63;5072445;28;1174405;-49
2022/11/09 01:36:03;;;;;;;11.45;2.35;;;;;;;12.55;100.00;100362.34;5113619;28;20448;-52
2022/11/09 01:38:32;;;;;;;6.53;2.20;;;;;;;12.54;100.00;100378.31;5113338;28;20088;-51
2022/11/09 01:41:00;;;;;;;10.82;2.25;;;;;;;12.49;100.00;100362.88;5112040;28;20090;-51
2022/11/09 01:43:28;;;;;;;9.38;2.33;;;;;;;12.42;100.00;100364.31;5111534;28;20541;-48
2022/11/09 01:46:03;;;;;;;8.15;2.05;;;;;;;12.38;100.00;100358.47;5114018;28;20130;-52
2022/11/09 01:48:38;;;;;;;7.25;2.00;;;;;;;12.42;100.00;100351.13;5114161;28;20063;-52
2022/11/09 01:51:12;;;;;;;8.45;2.30;;;;;;;12.40;100.00;100353.06;5113643;28;20089;-51
2022/11/09 01:53:45;;;;;;;8.88;2.83;;;;;;;12.36;100.00;100354.28;5113529;28;20040;-53
2022/11/09 01:56:14;;;;;;;6.35;2.10;;;;;;;12.34;100.00;100357.84;5113140;28;20035;-51
2022/11/09 01:58:47;;;;;;;6.13;2.20;;;;;;;12.32;100.00;100351.03;5113025;28;20115;-51
2022/11/09 02:01:17;;;;;;;7.60;2.33;;;;;;;12.34;100.00;100349.94;5109868;28;20044;-49
2022/11/09 02:03:53;;;;;;;8.13;2.40;;;;;;;12.34;100.00;100357.84;5110146;28;20051;-50
2022/11/09 02:06:23;;;;;;;7.20;2.40;;;;;;;12.31;100.00;100360.75;5113354;28;20048;-49
2022/11/09 02:08:56;;;;;;;7.03;2.38;;;;;;;12.31;100.00;100360.75;5113589;28;20413;-51
2022/11/09 02:11:26;;;;;;;;;;;;;;;12.33;100.00;100361.44;5113977;28;20059;-50
2022/11/09 02:13:58;;;;;;;6.13;2.20;;;;;;;12.31;100.00;100366.03;5113667;28;19943;-51
2022/11/09 02:16:27;;;;;;;7.45;2.28;;;;;;;12.36;100.00;100372.72;5113346;28;20063;-50
2022/11/09 02:18:59;;;;;;;6.95;2.40;;;;;;;12.31;100.00;100368.66;5113357;28;20075;-49
2022/11/09 02:21:32;;;;;;;10.65;1.98;;;;;;;12.31;100.00;100366.03;5113575;28;20079;-50
2022/11/09 02:24:00;;;;;;;9.30;2.47;;;;;;;12.32;100.00;100365.06;5112805;28;20044;-51
2022/11/09 02:26:32;;;;;;;7.38;1.90;;;;;;;12.31;100.00;100362.53;5109874;28;20047;-51
2022/11/09 02:29:03;;;;;;;5.50;2.13;;;;;;;12.30;100.00;100369.63;5110074;28;20047;-48
2022/11/09 02:31:35;;;;;;;5.72;2.13;;;;;;;12.29;100.00;100375.84;5113246;28;20051;-52
2022/11/09 02:34:07;;;;;;;5.95;1.75;;;;;;;12.26;100.00;100365.53;5112830;28;20130;-50
2022/11/09 02:36:36;;;;;;;6.57;2.00;;;;;;;12.29;100.00;100365.28;5113161;28;20054;-51
2022/11/09 02:39:06;;;;;;;6.43;1.88;;;;;;;12.28;100.00;100352.22;5112957;28;20055;-50
2022/11/09 02:41:42;;;;;;;7.20;2.45;;;;;;;12.36;100.00;100356.91;5111570;28;20419;-51
2022/11/09 02:44:11;;;;;;;8.35;2.08;;;;;;;12.32;100.00;100357.16;5110261;28;20043;-51
2022/11/09 02:46:42;;;;;;;7.65;2.10;;;;;;;12.29;100.00;100360.03;5108949;27;20716;-53
2022/11/09 02:49:10;;;;;;;8.35;2.05;;;;;;;12.24;100.00;100362.19;5112849;28;20040;-53
2022/11/09 02:51:39;;;;;;;6.95;2.20;;;;;;;12.25;100.00;100358.59;5112369;28;20131;-53
2022/11/09 02:54:08;;;;;;;6.85;2.30;;;;;;;12.24;100.00;100362.19;5112222;28;20043;-52
2022/11/09 02:56:36;;;;;;;6.38;2.08;;;;;;;12.19;100.00;100367.00;5112132;28;20039;-51
2022/11/09 02:59:04;;;;;;;8.35;1.98;;;;;;;12.14;100.00;100362.06;5112171;28;20096;-54
2022/11/09 03:01:32;;;;;;;7.45;2.17;;;;;;;12.14;100.00;100362.06;5112080;28;20501;-52
2022/11/09 03:04:00;;;;;;;8.48;2.25;;;;;;;12.16;100.00;100365.44;5112604;28;20078;-48
2022/11/09 03:06:34;;;;;;;6.57;1.85;;;;;;;12.16;100.00;100365.44;5112686;28;20043;-51
2022/11/09 03:09:05;;;;;;;7.80;2.10;;;;;;;12.17;100.00;100372.41;5112777;28;20035;-52
2022/11/09 03:11:34;;;;;;;6.55;1.83;;;;;;;12.17;100.00;100366.28;5112241;28;20040;-49
2022/11/09 03:14:02;;;;;;;7.65;1.98;;;;;;;12.15;100.00;100366.41;5112148;28;20411;-52
2022/11/09 03:16:33;;;;;;;8.75;2.30;;;;;;;12.17;100.00;100363.63;5112087;28;20155;-51
2022/11/09 03:19:01;;;;;;;11.40;2.35;;;;;;;12.21;100.00;100372.97;5110997;28;20088;-49
2022/11/09 03:21:32;;;;;;;6.20;2.08;;;;;;;12.26;100.00;100367.34;5108972;28;20044;-51
2022/11/09 03:24:00;;;;;;;10.15;2.70;;;;;;;12.18;100.00;100367.97;5111538;28;20044;-52
2022/11/09 03:26:29;;;;;;;8.43;2.30;;;;;;;12.16;100.00;100369.88;5112461;28;20071;-52
2022/11/09 03:28:57;;;;;;;6.95;1.90;;;;;;;12.19;100.00;100361.72;5112525;28;20044;-51
2022/11/09 03:31:27;;;;;;;6.22;1.92;;;;;;;12.19;100.00;100364.38;5112478;28;20542;-51
2022/11/09 03:33:56;;;;;;;8.20;2.00;;;;;;;12.15;100.00;100366.41;5112241;28;20048;-51
2022/11/09 03:36:24;;;;;;;10.65;1.88;;;;;;;12.15;100.00;100376.94;5112403;28;20120;-52
2022/11/09 03:38:53;;;;;;;7.35;1.92;;;;;;;12.19;100.00;100380.19;5112305;28;20084;-52
2022/11/09 03:41:23;;;;;;;8.00;1.90;;;;;;;12.20;100.00;100378.38;5111066;28;20043;-53
2022/11/09 03:43:52;;;;;;;6.95;2.05;;;;;;;12.18;100.00;100374.06;5110894;28;20105;-52
2022/11/09 03:46:20;;;;;;;7.40;2.10;;;;;;;12.17;100.00;100382.09;5110986;28;20047;-52
2022/11/09 03:48:49;;;;;;;6.93;1.85;;;;;;;12.24;100.00;100385.09;5112097;28;20547;-50
2022/11/09 03:51:19;;;;;;;7.53;1.95;;;;;;;12.14;100.00;100388.44;5110606;28;20056;-53
2022/11/09 03:53:47;;;;;;;10.93;2.00;;;;;;;12.16;100.00;100386.53;5110548;28;20398;-53
2022/11/09 03:56:15;;;;;;;6.22;1.60;;;;;;;12.13;100.00;100391.19;5111965;28;20040;-53
2022/11/09 03:58:43;;;;;;;7.38;1.83;;;;;;;12.11;100.00;100396.59;5112166;28;20047;-54
2022/11/09 04:01:12;;;;;;;9.40;1.90;;;;;;;12.12;100.00;100402.69;5111779;28;20082;-51
2022/11/09 04:03:41;;;;;;;13.15;1.90;;;;;;;12.12;100.00;100408.81;5112106;28;20486;-53
2022/11/09 04:06:09;;;;;;;7.53;1.92;;;;;;;12.14;100.00;100406.06;5111481;28;20047;-52
2022/11/09 04:08:38;;;;;;;7.55;1.85;;;;;;;12.09;100.00;100416.13;5115360;28;20553;-53
2022/11/09 04:11:07;;;;;;;6.55;1.70;;;;;;;12.09;100.00;100424.03;5115908;28;20040;-53
2022/11/09 04:13:35;;;;;;;5.63;1.85;;;;;;;12.11;100.00;100419.50;5114615;28;20052;-53
2022/11/09 04:16:03;;;;;;;9.38;1.90;;;;;;;12.07;100.00;100421.53;5115837;28;20540;-53
2022/11/09 04:18:33;;;;;;;7.00;1.63;;;;;;;12.04;100.00;100423.53;5115701;28;20399;-54
2022/11/09 04:21:01;;;;;;;12.65;1.77;;;;;;;12.02;100.00;100421.03;5115382;28;20556;-52
2022/11/09 04:23:29;;;;;;;6.88;1.88;;;;;;;11.97;100.00;100429.31;5115019;28;20676;-51
2022/11/09 04:25:58;;;;;;;9.07;2.20;;;;;;;11.94;100.00;100424.28;5114667;28;20109;-51
2022/11/09 04:28:26;;;;;;;10.43;2.13;;;;;;;11.94;100.00;100440.09;5114886;27;20040;-51
2022/11/09 04:30:55;;;;;;;9.48;1.95;;;;;;;11.83;100.00;100432.97;5115256;27;20051;-49
2022/11/09 04:33:23;;;;;;;8.60;1.92;;;;;;;11.81;100.00;100434.88;5115195;28;20077;-52
2022/11/09 04:35:53;;;;;;;9.43;2.15;;;;;;;11.79;100.00;100435.94;5115427;28;20100;-50
2022/11/09 04:38:21;;;;;;;12.43;2.70;;;;;;;11.80;100.00;100435.00;5113497;28;20047;-53
2022/11/09 04:40:49;;;;;;;9.05;2.20;;;;;;;11.73;100.00;100433.81;5110316;28;20506;-51
2022/11/09 04:43:17;;;;;;;7.68;2.03;;;;;;;11.71;100.00;100435.69;5114483;28;20055;-52
2022/11/09 04:45:46;;;;;;;9.73;1.80;;;;;;;11.69;100.00;100440.25;5115210;28;20391;-52
2022/11/09 04:48:14;;;;;;;8.63;1.80;;;;;;;11.62;100.00;100430.19;5114851;28;20060;-53
2022/11/09 04:50:42;;;;;;;9.23;1.88;;;;;;;11.58;100.00;100436.63;5114486;28;20059;-52
2022/11/09 04:53:14;;;;;;;10.65;1.95;;;;;;;11.57;100.00;100442.84;5114989;28;20096;-53
2022/11/09 04:55:42;;;;;;;11.00;2.30;;;;;;;11.53;100.00;100451.94;5114765;28;20175;-50
2022/11/09 04:58:10;;;;;;;9.35;1.73;;;;;;;11.48;100.00;100449.66;5114480;27;20558;-52
2022/11/09 05:00:39;;;;;;;6.55;1.70;;;;;;;11.48;100.00;100447.03;5114761;28;20051;-54
2022/11/09 05:03:08;;;;;;;6.85;1.67;;;;;;;11.48;100.00;100448.84;5114733;28;20104;-52
2022/11/09 05:05:38;;;;;;;12.52;2.20;;;;;;;11.46;100.00;100446.28;5114739;28;20409;-53
2022/11/09 05:08:15;;;;;;;10.90;2.10;;;;;;;11.42;100.00;100449.28;5114557;27;20374;-53
2022/11/09 05:10:43;;;;;;;9.98;1.73;;;;;;;11.41;100.00;100450.22;5114535;28;20051;-52
2022/11/09 05:13:13;;;;;;;9.65;1.98;;;;;;;11.38;100.00;100455.75;5113959;27;20051;-50
2022/11/09 05:15:41;;;;;;;8.27;1.90;;;;;;;11.35;100.00;100443.63;5114380;28;20573;-52
2022/11/09 05:18:10;;;;;;;10.43;2.17;;;;;;;11.36;100.00;100449.72;5113910;27;20048;-53
2022/11/09 05:20:38;;;;;;;10.02;2.22;;;;;;;11.34;100.00;100452.47;5114296;28;20507;-51
2022/11/09 05:25:53;;;;;;;10.02;1.88;;;;;;;11.29;100.00;100450.22;5114413;28;20080;-52
2022/11/09 05:28:21;;;;;;;10.40;2.03;;;;;;;11.31;100.00;100453.53;5114208;28;20051;-49
2022/11/09 05:30:52;;;;;;;11.70;2.10;;;;;;;11.29;100.00;100449.38;5114222;28;20036;-52
2022/11/09 05:33:20;;;;;;;8.82;1.70;;;;;;;11.28;100.00;100451.16;5113762;28;20047;-50
2022/11/09 05:35:49;;;;;;;9.48;2.10;;;;;;;11.25;100.00;100454.03;5110319;28;20525;-51
2022/11/09 05:38:17;;;;;;;9.15;1.85;;;;;;;11.21;100.00;100446.44;5111066;28;20059;-49
2022/11/09 05:40:48;;;;;;;8.60;2.30;;;;;;;11.20;100.00;100450.88;5113952;28;20045;-49
2022/11/09 05:43:17;;;;;;;11.68;2.75;;;;;;;11.18;100.00;100452.81;5113721;28;20048;-49
2022/11/09 05:45:47;;;;;;;14.48;2.50;;;;;;;11.16;100.00;100459.97;5113913;28;20060;-50
2022/11/09 05:48:17;;;;;;;10.80;2.22;;;;;;;11.15;100.00;100450.38;5113836;28;20134;-51
2022/11/09 05:50:45;;;;;;;12.65;2.28;;;;;;;11.15;100.00;100453.88;5113645;27;20047;-52
2022/11/09 05:53:13;;;;;;;11.35;2.30;;;;;;;11.11;100.00;100455.03;5113711;28;20374;-51
2022/11/09 05:55:42;;;;;;;9.75;2.30;;;;;;;11.07;100.00;100455.38;5113871;28;20390;-50
2022/11/09 05:58:11;;;;;;;10.65;2.22;;;;;;;11.04;100.00;100459.06;5113331;28;20158;-55
2022/11/09 06:00:40;;;;;;;12.07;2.00;;;;;;;11.04;100.00;100463.50;5113145;28;20035;-53
2022/11/09 06:03:10;;;;;;;13.75;2.40;;;;;;;10.99;100.00;100459.41;5110139;28;20162;-55
2022/11/09 06:05:40;;;;;;;12.35;2.30;;;;;;;10.93;100.00;100454.56;5110218;28;20081;-55
2022/11/09 06:08:10;;;;;;;14.57;2.13;;;;;;;10.87;100.00;100451.59;5110753;28;20051;-55
2022/11/09 06:10:39;;;;;;;9.00;2.47;;;;;;;10.85;100.00;100459.56;5112292;28;20104;-55
2022/11/09 06:13:07;;;;;;;12.23;1.75;;;;;;;10.83;100.00;100458.84;5113328;28;20043;-55
2022/11/09 06:15:36;;;;;;;11.25;2.08;;;;;;;10.73;100.00;100455.19;5109742;28;20765;-56
2022/11/09 06:18:06;;;;;;;8.73;2.00;;;;;;;10.73;100.00;100458.66;5109577;28;20503;-56
2022/11/09 06:20:34;;;;;;;14.32;1.98;;;;;;;10.74;100.00;100460.31;5109379;28;20055;-56
2022/11/09 06:23:02;;;;;;;8.52;1.88;;;;;;;10.70;100.00;100458.88;5110029;28;20565;-56
2022/11/09 06:25:32;;;;;;;7.28;2.20;;;;;;;10.70;100.00;100469.38;5108779;28;20051;-56
2022/11/09 06:28:01;;;;;;;13.30;3.03;;;;;;;10.68;100.00;100466.03;5110556;28;20093;-56
2022/11/09 06:30:30;;;;;;;8.40;1.95;;;;;;;10.68;100.00;100468.69;5107753;28;20032;-56
2022/11/09 06:32:59;;;;;;;9.13;1.90;;;;;;;10.66;100.00;100473.19;5109039;27;20059;-55
2022/11/09 06:35:29;;;;;;;11.00;2.22;;;;;;;10.59;100.00;100478.06;5107939;28;20073;-56
2022/11/09 06:37:58;;;;;;;14.68;2.70;;;;;;;10.59;100.00;100479.84;5110100;28;20047;-56
2022/11/09 06:40:27;;;;;;;8.18;2.00;;;;;;;10.57;100.00;100485.22;5108843;28;20478;-55
2022/11/09 06:42:58;;;;;;;11.43;2.30;;;;;;;10.57;100.00;100490.47;5109723;28;20088;-54
2022/11/09 06:45:27;;;;;;;11.95;2.55;;;;;;;10.53;100.00;100489.00;5111108;28;20051;-55
2022/11/09 06:47:56;;;;;;;13.95;3.05;;;;;;;10.56;100.00;100490.59;5109680;28;20039;-57
2022/11/09 06:50:25;;;;;;;15.30;2.38;;;;;;;10.55;100.00;100491.53;5108918;28;20054;-57
2022/11/09 06:52:57;;;;;;;10.13;2.03;;;;;;;10.52;100.00;100495.22;5109050;28;20048;-49
2022/11/09 06:55:26;;;;;;;9.13;2.10;;;;;;;10.52;100.00;100500.47;5109521;28;20044;-55
2022/11/09 06:57:54;;;;;;;11.13;2.28;;;;;;;10.55;100.00;100497.66;5110570;28;20066;-51
2022/11/09 07:00:24;;;;;;;12.55;2.40;;;;;;;10.51;100.00;100490.88;5108944;28;20531;-52
2022/11/09 07:02:52;;;;;;;10.60;2.38;;;;;;;10.51;100.00;100498.78;5107440;28;20138;-52
2022/11/09 07:05:22;;;;;;;12.85;2.30;;;;;;;10.46;100.00;100503.53;5111732;28;20054;-49
2022/11/09 07:07:50;;;;;;;12.13;2.08;;;;;;;10.47;100.00;100502.56;5108916;28;20040;-52
2022/11/09 07:10:19;;;;;;;13.75;2.30;;;;;;;10.44;100.00;100510.69;5110026;28;20566;-53
2022/11/09 07:12:48;;;;;;;14.60;2.10;;;;;;;10.42;100.00;100508.16;5112493;28;20039;-51
2022/11/09 07:15:17;;;;;;;15.90;2.50;;;;;;;10.45;100.00;100505.31;5112365;28;20130;-51
2022/11/09 07:17:46;;;;;;;14.40;2.60;;;;;;;10.44;100.00;100514.19;5112242;28;20043;-52
2022/11/09 07:20:15;;;;;;;11.32;2.65;;;;;;;10.47;100.00;100510.47;5112306;28;20082;-50
2022/11/09 07:22:43;;;;;;;10.52;2.13;;;;;;;10.49;100.00;100511.22;5112756;28;20058;-51
2022/11/09 07:25:12;;;;;;;13.73;2.70;;;;;;;10.53;100.00;100503.97;5112351;28;20048;-52
2022/11/09 07:27:42;;;;;;;12.32;2.83;;;;;;;10.54;100.00;100513.50;5112449;28;20375;-51
2022/11/09 07:30:11;;;;;;;17.48;2.80;;;;;;;10.62;100.00;100513.81;5111634;28;20048;-49
2022/11/09 07:32:40;;;;;;;9.68;2.13;;;;;;;10.74;100.00;100517.38;5111673;28;20066;-49
2022/11/09 07:35:29;;;;;;;10.43;2.58;;;;;;;10.82;100.00;100518.53;5111689;28;20047;-50
2022/11/09 07:38:00;;;;;;;16.38;2.78;;;;;;;10.96;100.00;100511.41;5112147;28;20482;-53
2022/11/09 07:40:29;;;;;;;9.57;2.60;;;;;;;11.05;100.00;100517.81;5111816;28;20075;-53
2022/11/09 07:43:00;;;;;;;11.85;2.08;;;;;;;11.07;100.00;100515.88;5113929;28;20035;-50
2022/11/09 07:45:28;;;;;;;9.82;2.17;;;;;;;11.18;100.00;100520.38;5115607;28;20043;-49
2022/11/09 07:47:57;;;;;;;9.13;2.10;;;;;;;11.32;100.00;100528.94;5116135;28;20122;-50
2022/11/09 07:50:26;;;;;;;13.15;2.45;;;;;;;11.36;100.00;100524.31;5114138;28;20059;-50
2022/11/09 07:52:55;;;;;;;11.98;2.55;;;;;;;11.43;100.00;100519.44;5112894;28;20052;-52
2022/11/09 07:55:24;;;;;;;11.70;2.17;;;;;;;11.53;100.00;100523.03;5116112;28;20047;-52
2022/11/09 07:57:55;;;;;;;9.00;2.65;;;;;;;11.73;100.00;100531.28;5115868;28;20075;-52
2022/11/09 08:00:25;;;;;;;10.07;1.95;;;;;;;11.72;100.00;100527.78;5116102;28;20046;-50
2022/11/09 08:02:54;;;;;;;9.15;2.50;;;;;;;11.78;100.00;100540.50;5116026;28;20104;-51
2022/11/09 08:05:22;;;;;;;9.05;2.10;;;;;;;11.98;100.00;100535.56;5115916;28;20049;-51
2022/11/09 08:07:54;;;;;;;9.88;2.42;;;;;;;11.96;100.00;100545.38;5115150;28;20416;-50
2022/11/09 08:10:24;;;;;;;12.05;2.90;;;;;;;12.26;100.00;100538.72;5112084;28;20469;-51
2022/11/09 08:12:55;;;;;;;14.50;2.55;;;;;;;12.24;100.00;100548.53;5111410;28;20036;-52
2022/11/09 08:15:26;;;;;;;10.18;2.25;;;;;;;12.20;100.00;100544.47;5111939;27;20052;-52
2022/11/09 08:18:00;;;;;;;12.45;2.45;;;;;;;12.17;100.00;100545.53;5115135;28;20088;-51
2022/11/09 08:20:29;;;;;;;9.10;2.42;;;;;;;12.06;100.00;100548.16;5114777;27;20097;-50
2022/11/09 08:22:57;;;;;;;12.38;2.65;;;;;;;12.12;100.00;100545.91;5112589;28;20043;-50
2022/11/09 08:25:31;;;;;;;10.82;2.22;;;;;;;12.29;100.00;100560.41;5113270;28;20050;-53
2022/11/09 08:27:59;;;;;;;9.35;2.63;;;;;;;12.45;100.00;100551.31;5115452;28;20040;-52
2022/11/09 08:30:29;;;;;;;10.68;2.13;;;;;;;12.50;100.00;100551.78;5115543;28;20071;-51
2022/11/09 08:33:01;;;;;;;;;;;;;;;12.48;100.00;100556.34;5115319;28;20055;-48
2022/11/09 08:35:29;;;;;;;11.60;2.47;;;;;;;12.58;100.00;100565.22;5114868;28;19972;-49
2022/11/09 08:38:01;;;;;;;11.38;2.30;;;;;;;12.60;100.00;100563.31;5114455;28;20126;-51
2022/11/09 08:40:30;;;;;;;16.50;2.50;;;;;;;12.73;100.00;100572.91;5112011;28;20581;-52
2022/11/09 08:43:02;;;;;;;11.05;2.13;;;;;;;12.68;100.00;100566.19;5111576;28;20043;-51
2022/11/09 08:45:34;;;;;;;11.95;2.20;;;;;;;12.73;100.00;100568.47;5114020;28;20563;-52
2022/11/09 08:48:03;;;;;;;10.55;2.33;;;;;;;12.73;100.00;100572.91;5111265;28;20044;-50
2022/11/09 08:50:32;;;;;;;11.05;2.78;;;;;;;12.74;100.00;100572.78;5113224;28;20055;-53
2022/11/09 08:53:01;;;;;;;10.90;2.58;;;;;;;12.83;100.00;100566.78;5114649;28;20551;-52
2022/11/09 08:55:30;;;;;;;15.13;2.33;;;;;;;12.93;100.00;100574.81;5114485;28;20046;-52
2022/11/09 08:58:00;;;;;;;9.00;2.22;;;;;;;12.98;100.00;100575.28;5114431;28;20092;-53
2022/11/09 09:00:28;;;;;;;8.57;2.00;;;;;;;13.01;100.00;100574.19;5114918;27;20051;-53
2022/11/09 09:02:58;;;;;;;9.35;2.08;;;;;;;13.03;100.00;100569.63;5114948;28;20054;-52
2022/11/09 09:05:26;;;;;;;10.35;1.98;;;;;;;13.10;100.00;100580.53;5112300;28;20055;-54
2022/11/09 09:07:54;;;;;;;9.80;2.50;;;;;;;13.12;100.00;100576.00;5111270;27;20039;-53
2022/11/09 09:10:22;;;;;;;11.05;2.30;;;;;;;13.22;100.00;100579.56;5115014;28;20047;-53
2022/11/09 09:12:50;;;;;;;8.02;2.15;;;;;;;13.25;100.00;100579.31;5113194;28;20075;-54
2022/11/09 09:15:19;;;;;;;11.85;2.45;;;;;;;13.20;100.00;100573.56;5114538;28;20184;-53
2022/11/09 09:17:47;;;;;;;11.77;2.35;;;;;;;13.23;100.00;100586.53;5114573;28;20475;-52
2022/11/09 09:20:17;;;;;;;9.35;1.90;;;;;;;13.33;100.00;100595.38;5114424;28;20494;-54
2022/11/09 09:22:47;;;;;;;10.88;2.45;;;;;;;13.32;100.00;100588.41;5114526;28;20043;-53
2022/11/09 09:25:16;;;;;;;8.27;2.13;;;;;;;13.26;100.00;100591.53;5114364;27;20039;-53
2022/11/09 09:27:44;;;;;;;16.20;2.60;;;;;;;13.26;100.00;100583.63;5114290;28;20039;-54
2022/11/09 09:30:13;;;;;;;10.77;2.13;;;;;;;13.33;100.00;100581.31;5114323;28;20052;-54
2022/11/09 09:32:41;;;;;;;7.78;2.15;;;;;;;13.26;100.00;100578.34;5114212;28;20100;-54
2022/11/09 09:35:10;;;;;;;11.35;2.55;;;;;;;13.30;100.00;100579.78;5113960;27;20039;-54
2022/11/09 09:37:39;;;;;;;10.23;2.13;;;;;;;13.37;100.00;100589.88;5114178;28;20035;-55
2022/11/09 09:40:19;;;;;;;9.65;2.35;;;;;;;13.48;100.00;100580.13;5112715;28;20044;-55
2022/11/09 09:42:47;;;;;;;10.15;2.13;;;;;;;13.50;100.00;100587.94;5110497;27;20059;-54
2022/11/09 09:45:20;;;;;;;10.75;2.10;;;;;;;13.46;100.00;100589.97;5112973;28;20520;-55
2022/11/09 09:47:53;;;;;;;8.10;2.20;;;;;;;13.30;100.00;100590.34;5113664;28;20075;-55
2022/11/09 09:50:24;;;;;;;10.35;2.15;;;;;;;13.34;100.00;100594.41;5112196;28;20490;-54
2022/11/09 09:53:01;;;;;;;10.63;2.08;;;;;;;13.34;100.00;100594.41;5110286;28;20066;-57
2022/11/09 09:55:55;;;;;;;12.23;2.65;;;;;;;13.48;100.00;100600.41;5112882;28;20526;-58
2022/11/09 09:58:26;;;;;;;11.43;2.47;;;;;;;13.48;100.00;100605.69;5113967;28;20048;-55
2022/11/09 10:00:59;;;;;;;9.88;2.30;;;;;;;13.68;100.00;100612.81;5112374;28;20414;-54
2022/11/09 10:03:28;;;;;;;8.38;2.05;;;;;;;14.01;100.00;100613.63;5109725;28;20047;-55
2022/11/09 10:06:01;;;;;;;10.95;1.77;;;;;;;14.09;100.00;100610.38;5110314;28;20100;-53
2022/11/09 10:08:45;;;;;;;9.13;2.00;;;;;;;14.23;100.00;100603.91;5113832;28;20039;-53
2022/11/09 10:11:24;;;;;;;11.82;2.08;;;;;;;14.29;100.00;100615.78;5113648;28;20040;-54
2022/11/09 10:14:10;;;;;;;12.07;2.13;;;;;;;14.14;100.00;100615.28;5111385;28;20558;-54
2022/11/09 10:16:45;;;;;;;9.18;2.38;;;;;;;14.02;100.00;100614.50;5109717;28;20108;-55
2022/11/09 10:19:30;;;;;;;10.02;1.70;;;;;;;14.25;100.00;100609.94;5112946;28;20587;-54
2022/11/09 10:22:06;;;;;;;8.73;2.35;;;;;;;14.42;100.00;100612.94;5113027;28;20153;-54
2022/11/09 10:24:45;;;;;;;8.57;1.63;;;;;;;14.44;100.00;100614.50;5112668;28;20131;-53
2022/11/09 10:27:36;;;;;;;13.38;2.30;;;;;;;14.48;100.00;100617.69;5109362;28;20048;-55
2022/11/09 10:30:14;;;;;;;12.35;1.95;;;;;;;14.62;100.00;100603.31;5109384;28;20039;-54
2022/11/09 10:32:45;;;;;;;12.52;2.08;;;;;;;14.45;100.00;100604.75;5111104;28;20140;-54
2022/11/09 10:35:19;;;;;;;9.18;1.98;;;;;;;14.54;100.00;100615.38;5109592;28;20384;-52
2022/11/09 10:37:49;;;;;;;11.35;2.30;;;;;;;14.29;100.00;100610.47;5110050;28;20502;-52
2022/11/09 10:40:22;;;;;;;10.77;1.63;;;;;;;14.30;100.00;100612.16;5112858;28;20059;-54
2022/11/09 10:42:53;;;;;;;9.35;1.90;;;;;;;14.43;100.00;100625.22;5111583;28;20438;-53
2022/11/09 10:45:29;;;;;;;9.50;1.85;;;;;;;14.53;100.00;100628.72;5109240;28;20040;-53
2022/11/09 10:47:58;;;;;;;9.05;2.45;;;;;;;14.65;100.00;100617.13;5112143;28;20043;-53
2022/11/09 10:50:33;;;;;;;12.50;2.08;;;;;;;14.77;100.00;100619.72;5112720;28;20134;-54
2022/11/09 10:53:12;;;;;;;9.80;1.33;;;;;;;14.76;100.00;100623.31;5112787;28;20070;-54
2022/11/09 10:55:55;;;;;;;8.73;2.00;;;;;;;14.97;100.00;100626.75;5112765;28;20069;-55
2022/11/09 10:58:30;;;;;;;11.05;1.80;;;;;;;15.01;100.00;100625.50;5112793;28;20031;-54
2022/11/09 11:01:01;;;;;;;10.32;2.22;;;;;;;14.90;100.00;100614.16;5109607;28;20490;-54
2022/11/09 11:03:31;;;;;;;9.88;1.80;;;;;;;14.74;100.00;100635.84;5109611;28;20044;-54
2022/11/09 11:06:01;;;;;;;9.70;1.80;;;;;;;14.63;100.00;100637.59;5112540;28;20058;-54
2022/11/09 11:08:34;;;;;;;8.68;1.60;;;;;;;14.72;100.00;100638.63;5112501;28;20028;-58
2022/11/09 11:11:21;;;;;;;9.07;2.00;;;;;;;14.74;100.00;100635.84;5109365;28;20054;-54
2022/11/09 11:14:14;;;;;;;11.35;1.80;;;;;;;14.74;100.00;100639.34;5108850;28;20051;-54
2022/11/09 11:16:52;;;;;;;9.20;1.67;;;;;;;14.79;100.00;100637.13;5110847;28;20498;-53
2022/11/09 11:19:32;;;;;;;12.70;2.45;;;;;;;14.79;100.00;100629.19;5116204;28;20092;-54
2022/11/09 11:22:21;;;;;;;12.68;1.90;;;;;;;14.82;100.00;100641.31;5112866;28;20097;-53
2022/11/09 11:24:58;;;;;;;8.30;2.08;;;;;;;14.89;100.00;100645.13;5114107;28;20043;-54
2022/11/09 11:27:37;;;;;;;8.23;1.83;;;;;;;14.90;100.00;100641.47;5116266;28;20112;-54
2022/11/09 11:30:11;;;;;;;6.88;1.80;;;;;;;14.75;100.00;100642.81;5116561;28;20111;-55
2022/11/09 11:32:39;;;;;;;8.27;1.75;;;;;;;14.68;100.00;100638.06;5115084;28;20451;-53